createdAt,value
2023-04-30T00:00:43.000Z,1027.08
2023-04-30T00:01:43.000Z,1027.09
2023-04-30T00:02:43.000Z,1027.07
2023-04-30T00:03:44.000Z,1027.08
2023-04-30T00:04:44.000Z,1027.07
2023-04-30T00:05:44.000Z,1027.09
2023-04-30T00:06:45.000Z,1027.07
2023-04-30T00:07:45.000Z,1027.09
2023-04-30T00:08:45.000Z,1027.12
2023-04-30T00:09:45.000Z,1027.13
2023-04-30T00:10:46.000Z,1027.09
2023-04-30T00:11:46.000Z,1027.15
2023-04-30T00:12:46.000Z,1027.15
2023-04-30T00:13:46.000Z,1027.09
2023-04-30T00:14:47.000Z,1027.09
2023-04-30T00:15:47.000Z,1027.14
2023-04-30T00:16:47.000Z,1027.14
2023-04-30T00:17:47.000Z,1027.15
2023-04-30T00:18:48.000Z,1027.2
2023-04-30T00:19:48.000Z,1027.24
2023-04-30T00:20:48.000Z,1027.24
2023-04-30T00:21:48.000Z,1027.28
2023-04-30T00:22:49.000Z,1027.27
2023-04-30T00:23:49.000Z,1027.32
2023-04-30T00:24:49.000Z,1027.32
2023-04-30T00:25:49.000Z,1027.31
2023-04-30T00:26:50.000Z,1027.29
2023-04-30T00:27:50.000Z,1027.33
2023-04-30T00:28:50.000Z,1027.33
2023-04-30T00:29:50.000Z,1027.37
2023-04-30T00:30:51.000Z,1027.34
2023-04-30T00:31:51.000Z,1027.36
2023-04-30T00:32:51.000Z,1027.38
2023-04-30T00:33:51.000Z,1027.36
2023-04-30T00:34:52.000Z,1027.36
2023-04-30T00:35:52.000Z,1027.4
2023-04-30T00:36:52.000Z,1027.4
2023-04-30T00:37:52.000Z,1027.36
2023-04-30T00:38:53.000Z,1027.39
2023-04-30T00:39:53.000Z,1027.41
2023-04-30T00:40:53.000Z,1027.4
2023-04-30T00:41:53.000Z,1027.46
2023-04-30T00:42:54.000Z,1027.42
2023-04-30T00:43:54.000Z,1027.45
2023-04-30T00:44:54.000Z,1027.48
2023-04-30T00:45:55.000Z,1027.5
2023-04-30T00:46:55.000Z,1027.45
2023-04-30T00:47:55.000Z,1027.51
2023-04-30T00:48:55.000Z,1027.55
2023-04-30T00:49:56.000Z,1027.56
2023-04-30T00:50:56.000Z,1027.56
2023-04-30T00:51:56.000Z,1027.57
2023-04-30T00:52:56.000Z,1027.52
2023-04-30T00:53:57.000Z,1027.49
2023-04-30T00:54:57.000Z,1027.5
2023-04-30T00:55:57.000Z,1027.47
2023-04-30T00:56:57.000Z,1027.48
2023-04-30T00:57:58.000Z,1027.44
2023-04-30T00:58:58.000Z,1027.48
2023-04-30T00:59:58.000Z,1027.54
2023-04-30T01:00:58.000Z,1027.52
2023-04-30T01:01:59.000Z,1027.52
2023-04-30T01:02:59.000Z,1027.54
2023-04-30T01:03:59.000Z,1027.51
2023-04-30T01:04:59.000Z,1027.52
2023-04-30T01:06:00.000Z,1027.55
2023-04-30T01:07:00.000Z,1027.55
2023-04-30T01:08:00.000Z,1027.56
2023-04-30T01:09:00.000Z,1027.57
2023-04-30T01:10:01.000Z,1027.6
2023-04-30T01:11:01.000Z,1027.6
2023-04-30T01:12:01.000Z,1027.61
2023-04-30T01:13:01.000Z,1027.59
2023-04-30T01:14:02.000Z,1027.59
2023-04-30T01:15:02.000Z,1027.56
2023-04-30T01:16:02.000Z,1027.61
2023-04-30T01:17:03.000Z,1027.61
2023-04-30T01:18:03.000Z,1027.63
2023-04-30T01:19:03.000Z,1027.68
2023-04-30T01:20:03.000Z,1027.65
2023-04-30T01:21:04.000Z,1027.67
2023-04-30T01:22:04.000Z,1027.69
2023-04-30T01:23:04.000Z,1027.68
2023-04-30T01:24:04.000Z,1027.7
2023-04-30T01:25:05.000Z,1027.71
2023-04-30T01:26:05.000Z,1027.74
2023-04-30T01:27:05.000Z,1027.78
2023-04-30T01:28:05.000Z,1027.74
2023-04-30T01:29:06.000Z,1027.81
2023-04-30T01:30:06.000Z,1027.79
2023-04-30T01:31:06.000Z,1027.77
2023-04-30T01:32:06.000Z,1027.79
2023-04-30T01:33:07.000Z,1027.85
2023-04-30T01:34:07.000Z,1027.85
2023-04-30T01:35:07.000Z,1027.86
2023-04-30T01:36:08.000Z,1027.88
2023-04-30T01:37:08.000Z,1027.83
2023-04-30T01:38:08.000Z,1027.84
2023-04-30T01:39:08.000Z,1027.87
2023-04-30T01:40:09.000Z,1027.91
2023-04-30T01:41:09.000Z,1027.91
2023-04-30T01:42:09.000Z,1027.92
2023-04-30T01:43:09.000Z,1027.98
2023-04-30T01:44:10.000Z,1027.96
2023-04-30T01:45:15.000Z,1027.96
2023-04-30T01:46:15.000Z,1027.98
2023-04-30T01:47:15.000Z,1028.02
2023-04-30T01:48:16.000Z,1028.0
2023-04-30T01:49:16.000Z,1028.04
2023-04-30T01:50:16.000Z,1028.05
2023-04-30T01:51:16.000Z,1028.06
2023-04-30T01:52:17.000Z,1028.09
2023-04-30T01:53:17.000Z,1028.12
2023-04-30T01:54:17.000Z,1028.12
2023-04-30T01:55:17.000Z,1028.13
2023-04-30T01:56:18.000Z,1028.18
2023-04-30T01:57:18.000Z,1028.14
2023-04-30T01:58:18.000Z,1028.16
2023-04-30T01:59:19.000Z,1028.17
2023-04-30T02:00:19.000Z,1028.19
2023-04-30T02:01:19.000Z,1028.19
2023-04-30T02:02:19.000Z,1028.18
2023-04-30T02:03:20.000Z,1028.21
2023-04-30T02:04:20.000Z,1028.21
2023-04-30T02:05:20.000Z,1028.21
2023-04-30T02:06:20.000Z,1028.22
2023-04-30T02:07:21.000Z,1028.24
2023-04-30T02:08:21.000Z,1028.2
2023-04-30T02:09:21.000Z,1028.19
2023-04-30T02:10:21.000Z,1028.22
2023-04-30T02:11:22.000Z,1028.2
2023-04-30T02:12:22.000Z,1028.26
2023-04-30T02:13:22.000Z,1028.23
2023-04-30T02:14:22.000Z,1028.26
2023-04-30T02:15:23.000Z,1028.29
2023-04-30T02:16:23.000Z,1028.31
2023-04-30T02:17:23.000Z,1028.26
2023-04-30T02:18:23.000Z,1028.34
2023-04-30T02:19:24.000Z,1028.33
2023-04-30T02:20:24.000Z,1028.35
2023-04-30T02:21:24.000Z,1028.36
2023-04-30T02:22:24.000Z,1028.36
2023-04-30T02:23:25.000Z,1028.35
2023-04-30T02:24:25.000Z,1028.36
2023-04-30T02:25:25.000Z,1028.42
2023-04-30T02:26:25.000Z,1028.37
2023-04-30T02:27:26.000Z,1028.4
2023-04-30T02:28:26.000Z,1028.42
2023-04-30T02:29:26.000Z,1028.44
2023-04-30T02:30:27.000Z,1028.44
2023-04-30T02:31:27.000Z,1028.41
2023-04-30T02:32:27.000Z,1028.46
2023-04-30T02:33:27.000Z,1028.47
2023-04-30T02:34:28.000Z,1028.44
2023-04-30T02:35:28.000Z,1028.44
2023-04-30T02:36:28.000Z,1028.49
2023-04-30T02:37:29.000Z,1028.52
2023-04-30T02:38:29.000Z,1028.49
2023-04-30T02:39:29.000Z,1028.54
2023-04-30T02:40:29.000Z,1028.56
2023-04-30T02:41:30.000Z,1028.54
2023-04-30T02:42:30.000Z,1028.5
2023-04-30T02:43:30.000Z,1028.55
2023-04-30T02:44:30.000Z,1028.54
2023-04-30T02:45:31.000Z,1028.56
2023-04-30T02:46:31.000Z,1028.59
2023-04-30T02:47:31.000Z,1028.55
2023-04-30T02:48:31.000Z,1028.57
2023-04-30T02:49:32.000Z,1028.58
2023-04-30T02:50:32.000Z,1028.59
2023-04-30T02:51:32.000Z,1028.58
2023-04-30T02:52:32.000Z,1028.6
2023-04-30T02:53:33.000Z,1028.68
2023-04-30T02:54:33.000Z,1028.74
2023-04-30T02:55:33.000Z,1028.74
2023-04-30T02:56:34.000Z,1028.74
2023-04-30T02:57:34.000Z,1028.73
2023-04-30T02:58:34.000Z,1028.74
2023-04-30T02:59:34.000Z,1028.72
2023-04-30T03:00:35.000Z,1028.72
2023-04-30T03:01:35.000Z,1028.74
2023-04-30T03:02:35.000Z,1028.78
2023-04-30T03:03:35.000Z,1028.73
2023-04-30T03:04:36.000Z,1028.74
2023-04-30T03:05:36.000Z,1028.76
2023-04-30T03:06:36.000Z,1028.76
2023-04-30T03:07:36.000Z,1028.77
2023-04-30T03:08:37.000Z,1028.78
2023-04-30T03:09:37.000Z,1028.83
2023-04-30T03:10:37.000Z,1028.84
2023-04-30T03:11:37.000Z,1028.75
2023-04-30T03:12:38.000Z,1028.79
2023-04-30T03:13:38.000Z,1028.83
2023-04-30T03:14:38.000Z,1028.82
2023-04-30T03:15:39.000Z,1028.84
2023-04-30T03:16:39.000Z,1028.76
2023-04-30T03:17:39.000Z,1028.82
2023-04-30T03:18:39.000Z,1028.86
2023-04-30T03:19:40.000Z,1028.85
2023-04-30T03:20:40.000Z,1028.82
2023-04-30T03:21:40.000Z,1028.86
2023-04-30T03:22:40.000Z,1028.93
2023-04-30T03:23:41.000Z,1028.92
2023-04-30T03:24:41.000Z,1028.9
2023-04-30T03:25:41.000Z,1028.9
2023-04-30T03:26:41.000Z,1028.91
2023-04-30T03:27:42.000Z,1028.88
2023-04-30T03:28:42.000Z,1028.92
2023-04-30T03:29:42.000Z,1028.94
2023-04-30T03:30:42.000Z,1028.97
2023-04-30T03:31:43.000Z,1028.97
2023-04-30T03:32:43.000Z,1028.98
2023-04-30T03:33:43.000Z,1028.99
2023-04-30T03:34:43.000Z,1028.99
2023-04-30T03:35:44.000Z,1029.04
2023-04-30T03:36:44.000Z,1029.03
2023-04-30T03:37:44.000Z,1029.09
2023-04-30T03:38:44.000Z,1029.05
2023-04-30T03:39:45.000Z,1029.04
2023-04-30T03:40:45.000Z,1029.08
2023-04-30T03:41:45.000Z,1029.11
2023-04-30T03:42:45.000Z,1029.1
2023-04-30T03:43:46.000Z,1029.12
2023-04-30T03:44:46.000Z,1029.13
2023-04-30T03:45:46.000Z,1029.14
2023-04-30T03:46:47.000Z,1029.15
2023-04-30T03:47:47.000Z,1029.17
2023-04-30T03:48:47.000Z,1029.19
2023-04-30T03:49:47.000Z,1029.2
2023-04-30T03:50:48.000Z,1029.17
2023-04-30T03:51:48.000Z,1029.2
2023-04-30T03:52:48.000Z,1029.2
2023-04-30T03:53:49.000Z,1029.19
2023-04-30T03:54:50.000Z,1029.23
2023-04-30T03:55:50.000Z,1029.17
2023-04-30T03:56:50.000Z,1029.23
2023-04-30T03:57:51.000Z,1029.27
2023-04-30T03:58:51.000Z,1029.21
2023-04-30T03:59:51.000Z,1029.25
2023-04-30T04:00:51.000Z,1029.27
2023-04-30T04:01:52.000Z,1029.26
2023-04-30T04:02:52.000Z,1029.25
2023-04-30T04:03:52.000Z,1029.24
2023-04-30T04:04:52.000Z,1029.26
2023-04-30T04:05:53.000Z,1029.23
2023-04-30T04:06:53.000Z,1029.28
2023-04-30T04:07:53.000Z,1029.31
2023-04-30T04:08:53.000Z,1029.32
2023-04-30T04:09:54.000Z,1029.35
2023-04-30T04:10:54.000Z,1029.33
2023-04-30T04:11:54.000Z,1029.35
2023-04-30T04:12:55.000Z,1029.36
2023-04-30T04:13:55.000Z,1029.37
2023-04-30T04:14:55.000Z,1029.36
2023-04-30T04:15:55.000Z,1029.37
2023-04-30T04:16:56.000Z,1029.38
2023-04-30T04:17:56.000Z,1029.45
2023-04-30T04:18:56.000Z,1029.42
2023-04-30T04:19:56.000Z,1029.44
2023-04-30T04:20:57.000Z,1029.46
2023-04-30T04:21:57.000Z,1029.49
2023-04-30T04:22:57.000Z,1029.51
2023-04-30T04:23:57.000Z,1029.49
2023-04-30T04:24:58.000Z,1029.48
2023-04-30T04:25:58.000Z,1029.51
2023-04-30T04:26:58.000Z,1029.55
2023-04-30T04:27:58.000Z,1029.53
2023-04-30T04:28:59.000Z,1029.56
2023-04-30T04:29:59.000Z,1029.59
2023-04-30T04:30:59.000Z,1029.58
2023-04-30T04:31:59.000Z,1029.6
2023-04-30T04:33:00.000Z,1029.56
2023-04-30T04:34:00.000Z,1029.67
2023-04-30T04:35:00.000Z,1029.67
2023-04-30T04:36:00.000Z,1029.69
2023-04-30T04:37:01.000Z,1029.7
2023-04-30T04:38:01.000Z,1029.76
2023-04-30T04:39:01.000Z,1029.75
2023-04-30T04:40:02.000Z,1029.72
2023-04-30T04:41:02.000Z,1029.73
2023-04-30T04:42:02.000Z,1029.74
2023-04-30T04:43:02.000Z,1029.78
2023-04-30T04:44:03.000Z,1029.75
2023-04-30T04:45:03.000Z,1029.75
2023-04-30T04:46:03.000Z,1029.75
2023-04-30T04:47:04.000Z,1029.78
2023-04-30T04:48:04.000Z,1029.73
2023-04-30T04:49:04.000Z,1029.75
2023-04-30T04:50:04.000Z,1029.72
2023-04-30T04:51:05.000Z,1029.78
2023-04-30T04:52:05.000Z,1029.81
2023-04-30T04:53:05.000Z,1029.83
2023-04-30T04:54:05.000Z,1029.83
2023-04-30T04:55:06.000Z,1029.86
2023-04-30T04:56:06.000Z,1029.88
2023-04-30T04:57:06.000Z,1029.93
2023-04-30T04:58:06.000Z,1029.93
2023-04-30T04:59:07.000Z,1029.94
2023-04-30T05:00:07.000Z,1029.95
2023-04-30T05:01:07.000Z,1029.91
2023-04-30T05:02:07.000Z,1029.9
2023-04-30T05:03:08.000Z,1029.95
2023-04-30T05:04:08.000Z,1029.99
2023-04-30T05:05:08.000Z,1030.01
2023-04-30T05:06:08.000Z,1030.01
2023-04-30T05:07:09.000Z,1030.09
2023-04-30T05:08:09.000Z,1030.1
2023-04-30T05:09:09.000Z,1030.09
2023-04-30T05:10:09.000Z,1030.07
2023-04-30T05:11:10.000Z,1030.07
2023-04-30T05:12:10.000Z,1030.11
2023-04-30T05:13:10.000Z,1030.1
2023-04-30T05:14:10.000Z,1030.01
2023-04-30T05:15:11.000Z,1030.04
2023-04-30T05:16:11.000Z,1030.1
2023-04-30T05:17:11.000Z,1030.07
2023-04-30T05:18:11.000Z,1030.07
2023-04-30T05:19:12.000Z,1030.09
2023-04-30T05:20:12.000Z,1030.11
2023-04-30T05:21:12.000Z,1030.12
2023-04-30T05:22:12.000Z,1030.14
2023-04-30T05:23:13.000Z,1030.13
2023-04-30T05:24:13.000Z,1030.12
2023-04-30T05:25:13.000Z,1030.13
2023-04-30T05:26:13.000Z,1030.09
2023-04-30T05:27:14.000Z,1030.08
2023-04-30T05:28:14.000Z,1030.12
2023-04-30T05:29:14.000Z,1030.15
2023-04-30T05:30:15.000Z,1030.16
2023-04-30T05:31:15.000Z,1030.14
2023-04-30T05:32:15.000Z,1030.2
2023-04-30T05:33:15.000Z,1030.2
2023-04-30T05:34:16.000Z,1030.2
2023-04-30T05:35:16.000Z,1030.21
2023-04-30T05:36:16.000Z,1030.2
2023-04-30T05:37:16.000Z,1030.25
2023-04-30T05:38:17.000Z,1030.27
2023-04-30T05:39:17.000Z,1030.29
2023-04-30T05:40:17.000Z,1030.25
2023-04-30T05:41:17.000Z,1030.29
2023-04-30T05:42:18.000Z,1030.29
2023-04-30T05:43:18.000Z,1030.32
2023-04-30T05:44:18.000Z,1030.35
2023-04-30T05:45:18.000Z,1030.32
2023-04-30T05:46:19.000Z,1030.35
2023-04-30T05:47:19.000Z,1030.34
2023-04-30T05:48:19.000Z,1030.36
2023-04-30T05:49:19.000Z,1030.34
2023-04-30T05:50:20.000Z,1030.33
2023-04-30T05:51:20.000Z,1030.32
2023-04-30T05:52:20.000Z,1030.35
2023-04-30T05:53:20.000Z,1030.31
2023-04-30T05:54:21.000Z,1030.31
2023-04-30T05:55:21.000Z,1030.33
2023-04-30T05:56:21.000Z,1030.34
2023-04-30T05:57:21.000Z,1030.33
2023-04-30T05:58:22.000Z,1030.33
2023-04-30T05:59:22.000Z,1030.33
2023-04-30T06:00:22.000Z,1030.37
2023-04-30T06:01:23.000Z,1030.32
2023-04-30T06:02:23.000Z,1030.33
2023-04-30T06:03:23.000Z,1030.31
2023-04-30T06:04:23.000Z,1030.32
2023-04-30T06:05:23.000Z,1030.29
2023-04-30T06:06:24.000Z,1030.27
2023-04-30T06:07:24.000Z,1030.26
2023-04-30T06:08:24.000Z,1030.19
2023-04-30T06:09:25.000Z,1030.22
2023-04-30T06:10:25.000Z,1030.21
2023-04-30T06:11:25.000Z,1030.22
2023-04-30T06:12:25.000Z,1030.23
2023-04-30T06:13:26.000Z,1030.23
2023-04-30T06:14:26.000Z,1030.28
2023-04-30T06:15:26.000Z,1030.22
2023-04-30T06:16:26.000Z,1030.2
2023-04-30T06:17:27.000Z,1030.19
2023-04-30T06:18:27.000Z,1030.19
2023-04-30T06:19:27.000Z,1030.19
2023-04-30T06:20:28.000Z,1030.22
2023-04-30T06:21:28.000Z,1030.25
2023-04-30T06:22:28.000Z,1030.24
2023-04-30T06:23:28.000Z,1030.27
2023-04-30T06:24:29.000Z,1030.27
2023-04-30T06:25:29.000Z,1030.22
2023-04-30T06:26:29.000Z,1030.27
2023-04-30T06:27:29.000Z,1030.22
2023-04-30T06:28:30.000Z,1030.24
2023-04-30T06:29:30.000Z,1030.27
2023-04-30T06:30:30.000Z,1030.28
2023-04-30T06:31:30.000Z,1030.29
2023-04-30T06:32:31.000Z,1030.28
2023-04-30T06:33:31.000Z,1030.2
2023-04-30T06:34:31.000Z,1030.25
2023-04-30T06:35:31.000Z,1030.27
2023-04-30T06:36:32.000Z,1030.27
2023-04-30T06:37:32.000Z,1030.21
2023-04-30T06:38:32.000Z,1030.22
2023-04-30T06:39:32.000Z,1030.25
2023-04-30T06:40:33.000Z,1030.23
2023-04-30T06:41:33.000Z,1030.25
2023-04-30T06:42:33.000Z,1030.24
2023-04-30T06:43:33.000Z,1030.28
2023-04-30T06:44:34.000Z,1030.3
2023-04-30T06:45:34.000Z,1030.31
2023-04-30T06:46:34.000Z,1030.36
2023-04-30T06:47:35.000Z,1030.36
2023-04-30T06:48:35.000Z,1030.37
2023-04-30T06:49:35.000Z,1030.32
2023-04-30T06:50:35.000Z,1030.36
2023-04-30T06:51:35.000Z,1030.32
2023-04-30T06:52:36.000Z,1030.32
2023-04-30T06:53:36.000Z,1030.34
2023-04-30T06:54:36.000Z,1030.31
2023-04-30T06:55:37.000Z,1030.32
2023-04-30T06:56:37.000Z,1030.35
2023-04-30T06:57:37.000Z,1030.36
2023-04-30T06:58:37.000Z,1030.34
2023-04-30T06:59:38.000Z,1030.36
2023-04-30T07:00:38.000Z,1030.29
2023-04-30T07:01:38.000Z,1030.33
2023-04-30T07:02:38.000Z,1030.26
2023-04-30T07:03:39.000Z,1030.27
2023-04-30T07:04:39.000Z,1030.3
2023-04-30T07:05:39.000Z,1030.29
2023-04-30T07:06:40.000Z,1030.3
2023-04-30T07:07:40.000Z,1030.31
2023-04-30T07:08:40.000Z,1030.37
2023-04-30T07:09:40.000Z,1030.34
2023-04-30T07:10:41.000Z,1030.29
2023-04-30T07:11:41.000Z,1030.29
2023-04-30T07:12:41.000Z,1030.28
2023-04-30T07:13:41.000Z,1030.3
2023-04-30T07:14:42.000Z,1030.29
2023-04-30T07:15:42.000Z,1030.34
2023-04-30T07:16:42.000Z,1030.32
2023-04-30T07:17:42.000Z,1030.33
2023-04-30T07:18:43.000Z,1030.31
2023-04-30T07:19:43.000Z,1030.32
2023-04-30T07:20:43.000Z,1030.37
2023-04-30T07:21:43.000Z,1030.4
2023-04-30T07:22:44.000Z,1030.36
2023-04-30T07:23:44.000Z,1030.35
2023-04-30T07:24:44.000Z,1030.38
2023-04-30T07:25:45.000Z,1030.43
2023-04-30T07:26:45.000Z,1030.37
2023-04-30T07:27:45.000Z,1030.37
2023-04-30T07:28:45.000Z,1030.35
2023-04-30T07:29:46.000Z,1030.36
2023-04-30T07:30:46.000Z,1030.29
2023-04-30T07:31:46.000Z,1030.31
2023-04-30T07:32:46.000Z,1030.3
2023-04-30T07:33:47.000Z,1030.31
2023-04-30T07:34:47.000Z,1030.33
2023-04-30T07:35:47.000Z,1030.31
2023-04-30T07:36:47.000Z,1030.27
2023-04-30T07:37:48.000Z,1030.32
2023-04-30T07:38:48.000Z,1030.38
2023-04-30T07:39:48.000Z,1030.36
2023-04-30T07:40:48.000Z,1030.41
2023-04-30T07:41:49.000Z,1030.38
2023-04-30T07:42:49.000Z,1030.44
2023-04-30T07:43:49.000Z,1030.39
2023-04-30T07:44:50.000Z,1030.4
2023-04-30T07:45:50.000Z,1030.43
2023-04-30T07:46:50.000Z,1030.44
2023-04-30T07:47:50.000Z,1030.47
2023-04-30T07:48:50.000Z,1030.43
2023-04-30T07:49:51.000Z,1030.46
2023-04-30T07:50:51.000Z,1030.48
2023-04-30T07:51:51.000Z,1030.53
2023-04-30T07:52:51.000Z,1030.54
2023-04-30T07:53:52.000Z,1030.56
2023-04-30T07:54:52.000Z,1030.56
2023-04-30T07:55:52.000Z,1030.56
2023-04-30T07:56:53.000Z,1030.54
2023-04-30T07:57:53.000Z,1030.55
2023-04-30T07:58:53.000Z,1030.54
2023-04-30T07:59:53.000Z,1030.64
2023-04-30T08:00:54.000Z,1030.54
2023-04-30T08:01:54.000Z,1030.54
2023-04-30T08:02:54.000Z,1030.53
2023-04-30T08:03:54.000Z,1030.53
2023-04-30T08:04:55.000Z,1030.5
2023-04-30T08:05:55.000Z,1030.54
2023-04-30T08:06:55.000Z,1030.56
2023-04-30T08:07:55.000Z,1030.54
2023-04-30T08:08:56.000Z,1030.51
2023-04-30T08:09:56.000Z,1030.55
2023-04-30T08:10:56.000Z,1030.59
2023-04-30T08:11:56.000Z,1030.58
2023-04-30T08:12:57.000Z,1030.56
2023-04-30T08:13:57.000Z,1030.61
2023-04-30T08:14:57.000Z,1030.62
2023-04-30T08:15:57.000Z,1030.58
2023-04-30T08:16:58.000Z,1030.57
2023-04-30T08:17:58.000Z,1030.65
2023-04-30T08:18:58.000Z,1030.61
2023-04-30T08:19:58.000Z,1030.67
2023-04-30T08:20:59.000Z,1030.62
2023-04-30T08:21:59.000Z,1030.64
2023-04-30T08:22:59.000Z,1030.65
2023-04-30T08:23:59.000Z,1030.62
2023-04-30T08:25:00.000Z,1030.66
2023-04-30T08:26:00.000Z,1030.68
2023-04-30T08:27:00.000Z,1030.71
2023-04-30T08:28:00.000Z,1030.64
2023-04-30T08:29:01.000Z,1030.63
2023-04-30T08:30:01.000Z,1030.61
2023-04-30T08:31:01.000Z,1030.65
2023-04-30T08:32:02.000Z,1030.69
2023-04-30T08:33:02.000Z,1030.65
2023-04-30T08:34:02.000Z,1030.67
2023-04-30T08:35:02.000Z,1030.62
2023-04-30T08:36:03.000Z,1030.66
2023-04-30T08:37:03.000Z,1030.62
2023-04-30T08:38:03.000Z,1030.65
2023-04-30T08:39:04.000Z,1030.62
2023-04-30T08:40:04.000Z,1030.63
2023-04-30T08:41:04.000Z,1030.61
2023-04-30T08:42:04.000Z,1030.6
2023-04-30T08:43:05.000Z,1030.66
2023-04-30T08:44:05.000Z,1030.6
2023-04-30T08:45:05.000Z,1030.62
2023-04-30T08:46:05.000Z,1030.6
2023-04-30T08:47:06.000Z,1030.66
2023-04-30T08:48:06.000Z,1030.65
2023-04-30T08:49:06.000Z,1030.67
2023-04-30T08:50:06.000Z,1030.6
2023-04-30T08:51:07.000Z,1030.61
2023-04-30T08:52:07.000Z,1030.61
2023-04-30T08:53:07.000Z,1030.65
2023-04-30T08:54:07.000Z,1030.58
2023-04-30T08:55:08.000Z,1030.59
2023-04-30T08:56:08.000Z,1030.62
2023-04-30T08:57:08.000Z,1030.55
2023-04-30T08:58:09.000Z,1030.57
2023-04-30T08:59:09.000Z,1030.57
2023-04-30T09:00:09.000Z,1030.58
2023-04-30T09:01:09.000Z,1030.57
2023-04-30T09:02:10.000Z,1030.6
2023-04-30T09:03:10.000Z,1030.6
2023-04-30T09:04:10.000Z,1030.55
2023-04-30T09:05:10.000Z,1030.54
2023-04-30T09:06:11.000Z,1030.56
2023-04-30T09:07:11.000Z,1030.53
2023-04-30T09:08:11.000Z,1030.51
2023-04-30T09:09:11.000Z,1030.58
2023-04-30T09:10:12.000Z,1030.57
2023-04-30T09:11:12.000Z,1030.52
2023-04-30T09:12:12.000Z,1030.53
2023-04-30T09:13:12.000Z,1030.56
2023-04-30T09:14:13.000Z,1030.58
2023-04-30T09:15:13.000Z,1030.55
2023-04-30T09:16:13.000Z,1030.56
2023-04-30T09:17:14.000Z,1030.56
2023-04-30T09:18:14.000Z,1030.53
2023-04-30T09:19:14.000Z,1030.56
2023-04-30T09:20:14.000Z,1030.54
2023-04-30T09:21:15.000Z,1030.53
2023-04-30T09:22:15.000Z,1030.53
2023-04-30T09:23:15.000Z,1030.53
2023-04-30T09:24:16.000Z,1030.53
2023-04-30T09:25:16.000Z,1030.5
2023-04-30T09:26:16.000Z,1030.54
2023-04-30T09:27:16.000Z,1030.51
2023-04-30T09:28:17.000Z,1030.53
2023-04-30T09:29:17.000Z,1030.49
2023-04-30T09:30:17.000Z,1030.5
2023-04-30T09:31:17.000Z,1030.48
2023-04-30T09:32:18.000Z,1030.42
2023-04-30T09:33:18.000Z,1030.5
2023-04-30T09:34:18.000Z,1030.4
2023-04-30T09:35:19.000Z,1030.47
2023-04-30T09:36:19.000Z,1030.42
2023-04-30T09:37:19.000Z,1030.4
2023-04-30T09:38:19.000Z,1030.39
2023-04-30T09:39:20.000Z,1030.44
2023-04-30T09:40:20.000Z,1030.43
2023-04-30T09:41:20.000Z,1030.43
2023-04-30T09:42:20.000Z,1030.4
2023-04-30T09:43:21.000Z,1030.4
2023-04-30T09:44:21.000Z,1030.41
2023-04-30T09:45:21.000Z,1030.4
2023-04-30T09:46:22.000Z,1030.4
2023-04-30T09:47:22.000Z,1030.38
2023-04-30T09:48:22.000Z,1030.42
2023-04-30T09:49:22.000Z,1030.33
2023-04-30T09:50:23.000Z,1030.41
2023-04-30T09:51:23.000Z,1030.39
2023-04-30T09:52:23.000Z,1030.38
2023-04-30T09:53:23.000Z,1030.37
2023-04-30T09:54:24.000Z,1030.38
2023-04-30T09:55:24.000Z,1030.41
2023-04-30T09:56:24.000Z,1030.43
2023-04-30T09:57:24.000Z,1030.4
2023-04-30T09:58:25.000Z,1030.38
2023-04-30T09:59:25.000Z,1030.31
2023-04-30T10:00:25.000Z,1030.29
2023-04-30T10:01:25.000Z,1030.21
2023-04-30T10:02:26.000Z,1030.24
2023-04-30T10:03:26.000Z,1030.23
2023-04-30T10:04:26.000Z,1030.24
2023-04-30T10:05:26.000Z,1030.27
2023-04-30T10:06:27.000Z,1030.29
2023-04-30T10:07:27.000Z,1030.24
2023-04-30T10:08:27.000Z,1030.24
2023-04-30T10:09:27.000Z,1030.19
2023-04-30T10:10:28.000Z,1030.23
2023-04-30T10:11:28.000Z,1030.25
2023-04-30T10:12:28.000Z,1030.24
2023-04-30T10:13:29.000Z,1030.31
2023-04-30T10:14:29.000Z,1030.22
2023-04-30T10:15:29.000Z,1030.27
2023-04-30T10:16:30.000Z,1030.24
2023-04-30T10:17:30.000Z,1030.21
2023-04-30T10:18:30.000Z,1030.2
2023-04-30T10:19:30.000Z,1030.26
2023-04-30T10:20:31.000Z,1030.23
2023-04-30T10:21:31.000Z,1030.19
2023-04-30T10:22:31.000Z,1030.21
2023-04-30T10:23:31.000Z,1030.15
2023-04-30T10:24:32.000Z,1030.13
2023-04-30T10:25:32.000Z,1030.14
2023-04-30T10:26:32.000Z,1030.11
2023-04-30T10:27:33.000Z,1030.09
2023-04-30T10:28:33.000Z,1030.09
2023-04-30T10:29:33.000Z,1030.05
2023-04-30T10:30:33.000Z,1030.07
2023-04-30T10:31:34.000Z,1030.06
2023-04-30T10:32:34.000Z,1030.09
2023-04-30T10:33:34.000Z,1030.11
2023-04-30T10:34:34.000Z,1030.02
2023-04-30T10:35:35.000Z,1030.04
2023-04-30T10:36:35.000Z,1030.04
2023-04-30T10:37:35.000Z,1029.96
2023-04-30T10:38:35.000Z,1030.0
2023-04-30T10:39:36.000Z,1029.95
2023-04-30T10:40:36.000Z,1029.93
2023-04-30T10:41:36.000Z,1029.93
2023-04-30T10:42:37.000Z,1029.92
2023-04-30T10:43:37.000Z,1029.91
2023-04-30T10:44:37.000Z,1029.9
2023-04-30T10:45:37.000Z,1029.84
2023-04-30T10:46:38.000Z,1029.83
2023-04-30T10:47:38.000Z,1029.82
2023-04-30T10:48:38.000Z,1029.84
2023-04-30T10:49:38.000Z,1029.79
2023-04-30T10:50:39.000Z,1029.83
2023-04-30T10:51:39.000Z,1029.78
2023-04-30T10:52:39.000Z,1029.76
2023-04-30T10:53:39.000Z,1029.75
2023-04-30T10:54:40.000Z,1029.73
2023-04-30T10:55:40.000Z,1029.73
2023-04-30T10:56:40.000Z,1029.73
2023-04-30T10:57:40.000Z,1029.73
2023-04-30T10:58:41.000Z,1029.72
2023-04-30T10:59:41.000Z,1029.67
2023-04-30T11:00:41.000Z,1029.64
2023-04-30T11:01:42.000Z,1029.7
2023-04-30T11:02:42.000Z,1029.64
2023-04-30T11:03:42.000Z,1029.66
2023-04-30T11:04:42.000Z,1029.65
2023-04-30T11:05:43.000Z,1029.66
2023-04-30T11:06:43.000Z,1029.73
2023-04-30T11:07:43.000Z,1029.69
2023-04-30T11:08:43.000Z,1029.68
2023-04-30T11:09:44.000Z,1029.63
2023-04-30T11:10:44.000Z,1029.67
2023-04-30T11:11:44.000Z,1029.68
2023-04-30T11:12:44.000Z,1029.7
2023-04-30T11:13:45.000Z,1029.7
2023-04-30T11:14:45.000Z,1029.7
2023-04-30T11:15:45.000Z,1029.68
2023-04-30T11:16:45.000Z,1029.68
2023-04-30T11:17:46.000Z,1029.65
2023-04-30T11:18:46.000Z,1029.56
2023-04-30T11:19:46.000Z,1029.64
2023-04-30T11:20:47.000Z,1029.56
2023-04-30T11:21:47.000Z,1029.53
2023-04-30T11:22:47.000Z,1029.54
2023-04-30T11:23:47.000Z,1029.57
2023-04-30T11:24:48.000Z,1029.55
2023-04-30T11:25:48.000Z,1029.57
2023-04-30T11:26:48.000Z,1029.54
2023-04-30T11:27:48.000Z,1029.51
2023-04-30T11:28:49.000Z,1029.51
2023-04-30T11:29:49.000Z,1029.53
2023-04-30T11:30:49.000Z,1029.51
2023-04-30T11:31:49.000Z,1029.52
2023-04-30T11:32:50.000Z,1029.49
2023-04-30T11:33:50.000Z,1029.45
2023-04-30T11:34:50.000Z,1029.46
2023-04-30T11:35:50.000Z,1029.45
2023-04-30T11:36:51.000Z,1029.42
2023-04-30T11:37:51.000Z,1029.45
2023-04-30T11:38:51.000Z,1029.4
2023-04-30T11:39:51.000Z,1029.41
2023-04-30T11:40:57.000Z,1029.33
2023-04-30T11:41:57.000Z,1029.38
2023-04-30T11:42:57.000Z,1029.39
2023-04-30T11:43:57.000Z,1029.43
2023-04-30T11:44:58.000Z,1029.45
2023-04-30T11:45:58.000Z,1029.44
2023-04-30T11:46:58.000Z,1029.37
2023-04-30T11:47:59.000Z,1029.39
2023-04-30T11:48:59.000Z,1029.38
2023-04-30T11:49:59.000Z,1029.36
2023-04-30T11:50:59.000Z,1029.38
2023-04-30T11:52:00.000Z,1029.35
2023-04-30T11:53:00.000Z,1029.32
2023-04-30T11:54:00.000Z,1029.36
2023-04-30T11:55:00.000Z,1029.34
2023-04-30T11:56:01.000Z,1029.36
2023-04-30T11:57:01.000Z,1029.29
2023-04-30T11:58:01.000Z,1029.34
2023-04-30T11:59:01.000Z,1029.36
2023-04-30T12:00:02.000Z,1029.4
2023-04-30T12:01:02.000Z,1029.41
2023-04-30T12:02:02.000Z,1029.44
2023-04-30T12:03:02.000Z,1029.42
2023-04-30T12:04:03.000Z,1029.41
2023-04-30T12:05:03.000Z,1029.39
2023-04-30T12:06:03.000Z,1029.4
2023-04-30T12:07:03.000Z,1029.4
2023-04-30T12:08:04.000Z,1029.43
2023-04-30T12:09:04.000Z,1029.45
2023-04-30T12:10:04.000Z,1029.44
2023-04-30T12:11:05.000Z,1029.48